Time;durP1;ratioP1;P1;durP2;ratioP2;P2;SDS_P1;SDS_P2;PMS_P1;PMS_P2;Temp;Humidity;BMP_temperature;BMP_pressure;BME280_temperature;BME280_humidity;BME280_pressure;Samples;Min_cycle;Max_cycle;Signal;HPM_P1;HPM_P2
2023/04/07 00:00:54;;;;;;;8.57;6.23;;;6.80;99.90;;;;;;4945109;28;20263;-74
2023/04/07 00:03:20;;;;;;;9.57;6.37;;;6.80;99.90;;;;;;4943208;28;20210;-74
2023/04/07 00:05:46;;;;;;;11.27;6.87;;;6.80;99.90;;;;;;4942473;28;20210;-74
2023/04/07 00:08:12;;;;;;;7.57;5.77;;;6.80;99.90;;;;;;4952201;28;20199;-75
2023/04/07 00:10:38;;;;;;;10.57;6.93;;;6.80;99.90;;;;;;4949346;28;20713;-74
2023/04/07 00:13:04;;;;;;;12.00;6.03;;;6.80;99.90;;;;;;4951237;28;20183;-72
2023/04/07 00:15:29;;;;;;;10.23;6.13;;;6.80;99.90;;;;;;4948546;28;20287;-76
2023/04/07 00:17:55;;;;;;;11.13;5.93;;;6.80;99.90;;;;;;4953098;28;20271;-75
2023/04/07 00:20:21;;;;;;;10.33;6.50;;;6.80;99.90;;;;;;4949287;28;20226;-75
2023/04/07 00:22:46;;;;;;;11.57;6.63;;;6.80;99.90;;;;;;4948676;28;20215;-74
2023/04/07 00:25:12;;;;;;;11.07;6.77;;;6.70;99.90;;;;;;4948313;28;20186;-74
2023/04/07 00:27:38;;;;;;;11.00;7.13;;;6.70;99.90;;;;;;4944777;28;20197;-73
2023/04/07 00:30:04;;;;;;;10.93;6.97;;;6.60;99.90;;;;;;4947032;28;20211;-72
2023/04/07 00:32:30;;;;;;;11.17;6.90;;;6.60;99.90;;;;;;4948286;28;20211;-74
2023/04/07 00:34:55;;;;;;;10.30;6.67;;;6.60;99.90;;;;;;4944418;28;20211;-73
2023/04/07 00:37:21;;;;;;;12.10;7.00;;;6.50;99.90;;;;;;4944641;28;20179;-75
2023/04/07 00:39:46;;;;;;;13.57;6.47;;;6.50;99.90;;;;;;4949564;28;20218;-74
2023/04/07 00:42:12;;;;;;;11.47;6.57;;;6.40;99.90;;;;;;4944345;28;20257;-75
2023/04/07 00:44:38;;;;;;;11.30;6.60;;;6.40;99.90;;;;;;4943369;28;20371;-74
2023/04/07 00:47:04;;;;;;;9.83;6.97;;;6.30;99.90;;;;;;4950838;28;20215;-73
2023/04/07 00:49:30;;;;;;;9.60;6.73;;;6.40;99.90;;;;;;4951033;28;20606;-73
2023/04/07 00:52:00;;;;;;;9.87;6.10;;;6.30;99.90;;;;;;4948948;28;20192;-75
2023/04/07 00:54:25;;;;;;;11.23;7.00;;;6.30;99.90;;;;;;4950235;28;20211;-75
2023/04/07 00:56:52;;;;;;;9.65;7.20;;;6.30;99.90;;;;;;4949410;28;20424;-74
2023/04/07 00:59:18;;;;;;;10.90;6.83;;;6.40;99.90;;;;;;4948961;28;20218;-74
2023/04/07 01:01:57;;;;;;;9.57;6.40;;;6.40;99.90;;;;;;4949830;28;20657;-74
2023/04/07 01:04:32;;;;;;;11.90;6.80;;;6.40;99.90;;;;;;4953719;28;20670;-74
2023/04/07 01:07:05;;;;;;;10.07;6.07;;;6.30;99.90;;;;;;4950243;28;20179;-75
2023/04/07 01:09:39;;;;;;;10.83;5.77;;;6.30;99.90;;;;;;4949121;28;20223;-74
2023/04/07 01:12:22;;;;;;;11.90;6.10;;;6.30;99.90;;;;;;4949872;28;20245;-73
2023/04/07 01:14:57;;;;;;;12.63;6.00;;;6.30;99.90;;;;;;4946727;28;20218;-74
2023/04/07 01:17:26;;;;;;;9.93;5.93;;;6.40;99.90;;;;;;4947436;28;20203;-74
2023/04/07 01:20:04;;;;;;;9.27;6.23;;;6.30;99.90;;;;;;4949308;28;20270;-75
2023/04/07 01:22:42;;;;;;;10.47;6.47;;;6.40;99.90;;;;;;4945136;28;20235;-74
2023/04/07 01:25:29;;;;;;;7.63;5.10;;;6.20;99.90;;;;;;4954586;28;20179;-74
2023/04/07 01:28:26;;;;;;;9.13;5.80;;;6.20;99.90;;;;;;4954520;28;20233;-74
2023/04/07 01:30:55;;;;;;;10.93;6.20;;;6.20;99.90;;;;;;4951739;28;20246;-74
2023/04/07 01:33:22;;;;;;;9.33;5.53;;;6.20;99.90;;;;;;4953285;28;20218;-75
2023/04/07 01:35:49;;;;;;;8.83;5.40;;;6.20;99.90;;;;;;4952176;28;20643;-75
2023/04/07 01:38:16;;;;;;;10.63;5.73;;;6.30;99.90;;;;;;4948342;28;20801;-75
2023/04/07 01:40:43;;;;;;;10.17;5.90;;;6.20;99.90;;;;;;4949407;28;20230;-72
2023/04/07 01:43:09;;;;;;;8.97;6.47;;;6.20;99.90;;;;;;4949525;28;20172;-75
2023/04/07 01:45:37;;;;;;;9.80;6.53;;;6.20;99.90;;;;;;4950493;28;20262;-74
2023/04/07 01:48:06;;;;;;;9.63;6.27;;;6.20;99.90;;;;;;4949199;28;20211;-74
2023/04/07 01:50:32;;;;;;;11.53;5.73;;;6.10;99.90;;;;;;4950413;28;20214;-75
2023/04/07 01:52:59;;;;;;;9.13;6.23;;;6.10;99.90;;;;;;4947404;28;20212;-75
2023/04/07 01:55:25;;;;;;;9.57;5.80;;;6.10;99.90;;;;;;4950223;28;20258;-73
2023/04/07 01:57:52;;;;;;;10.63;6.53;;;6.10;99.90;;;;;;4949408;28;20327;-75
2023/04/07 02:00:18;;;;;;;9.47;6.20;;;6.00;99.90;;;;;;4949896;28;20879;-75
2023/04/07 02:02:48;;;;;;;7.53;5.60;;;6.00;99.90;;;;;;4961956;28;20204;-73
2023/04/07 02:05:18;;;;;;;9.80;6.53;;;6.00;99.90;;;;;;4953728;28;20211;-74
2023/04/07 02:08:16;;;;;;;9.97;6.17;;;5.90;99.90;;;;;;4951146;28;20213;-74
2023/04/07 02:10:45;;;;;;;10.33;6.33;;;5.90;99.90;;;;;;4952859;28;20219;-75
2023/04/07 02:13:15;;;;;;;9.87;6.80;;;5.80;99.90;;;;;;4951904;28;20254;-75
2023/04/07 02:15:44;;;;;;;13.13;6.40;;;5.80;99.90;;;;;;4950267;28;20775;-75
2023/04/07 02:18:11;;;;;;;12.37;6.30;;;5.80;99.90;;;;;;4954617;28;20293;-74
2023/04/07 02:20:38;;;;;;;12.87;6.63;;;5.80;99.90;;;;;;4947876;28;20226;-75
2023/04/07 02:23:09;;;;;;;15.53;7.07;;;5.80;99.90;;;;;;4951573;28;20377;-73
2023/04/07 02:25:37;;;;;;;11.30;6.37;;;5.80;99.90;;;;;;4946523;28;20238;-75
2023/04/07 02:28:03;;;;;;;9.03;5.80;;;5.60;99.90;;;;;;4948809;28;20336;-74
2023/04/07 02:30:29;;;;;;;13.83;6.37;;;5.70;99.90;;;;;;4947088;28;20633;-74
2023/04/07 02:32:55;;;;;;;11.03;6.30;;;5.70;99.90;;;;;;4945990;28;20207;-74
2023/04/07 02:35:21;;;;;;;14.20;6.80;;;5.70;99.90;;;;;;4943910;28;20329;-74
2023/04/07 02:37:46;;;;;;;11.03;6.00;;;5.70;99.90;;;;;;4947702;28;20234;-74
2023/04/07 02:40:13;;;;;;;10.07;6.20;;;5.70;99.90;;;;;;4945967;28;20215;-75
2023/04/07 02:42:38;;;;;;;8.83;6.13;;;5.60;99.90;;;;;;4952460;28;20198;-74
2023/04/07 02:45:05;;;;;;;10.43;6.00;;;5.70;99.90;;;;;;4952540;28;20264;-74
2023/04/07 02:47:32;;;;;;;9.10;5.97;;;5.70;99.90;;;;;;4947189;28;20257;-76
2023/04/07 02:49:57;;;;;;;9.57;6.33;;;5.70;99.90;;;;;;4950189;28;20223;-75
2023/04/07 02:52:23;;;;;;;9.03;6.00;;;5.70;99.90;;;;;;4952353;28;20325;-76
2023/04/07 02:54:48;;;;;;;7.43;5.33;;;5.70;99.90;;;;;;4949347;28;20175;-76
2023/04/07 02:57:14;;;;;;;9.37;5.83;;;5.80;99.90;;;;;;4951322;28;20228;-75
2023/04/07 02:59:40;;;;;;;10.37;5.83;;;5.70;99.90;;;;;;4946640;28;20688;-75
2023/04/07 03:02:06;;;;;;;9.57;5.87;;;5.80;99.90;;;;;;4948015;28;20761;-76
2023/04/07 03:04:31;;;;;;;11.27;6.57;;;5.70;99.90;;;;;;4947516;28;20878;-75
2023/04/07 03:06:57;;;;;;;10.73;6.03;;;5.60;99.90;;;;;;4948862;28;20198;-75
2023/04/07 03:09:23;;;;;;;10.03;6.10;;;5.50;99.90;;;;;;4949779;28;20243;-75
2023/04/07 03:11:49;;;;;;;10.00;6.20;;;5.40;99.90;;;;;;4943385;28;20215;-74
2023/04/07 03:14:15;;;;;;;9.00;5.97;;;5.50;99.90;;;;;;4951785;28;20207;-76
2023/04/07 03:16:41;;;;;;;11.50;6.30;;;5.40;99.90;;;;;;4942503;28;20214;-75
2023/04/07 03:19:07;;;;;;;14.17;6.90;;;5.40;99.90;;;;;;4944661;28;20867;-75
2023/04/07 03:21:33;;;;;;;10.90;6.37;;;5.30;99.90;;;;;;4951220;28;20210;-75
2023/04/07 03:23:59;;;;;;;11.47;6.10;;;5.40;99.90;;;;;;4951121;28;20218;-75
2023/04/07 03:26:25;;;;;;;11.40;6.57;;;5.40;99.90;;;;;;4948036;28;20206;-75
2023/04/07 03:28:50;;;;;;;9.07;6.33;;;5.40;99.90;;;;;;4948342;28;20211;-74
2023/04/07 03:31:16;;;;;;;12.67;6.10;;;5.40;99.90;;;;;;4947419;28;20698;-75
2023/04/07 03:33:41;;;;;;;10.13;6.53;;;5.40;99.90;;;;;;4949449;28;20175;-75
2023/04/07 03:36:07;;;;;;;8.40;5.90;;;5.50;99.90;;;;;;4948135;28;20702;-75
2023/04/07 03:38:33;;;;;;;11.47;7.40;;;5.50;99.90;;;;;;4950301;28;20278;-75
2023/04/07 03:40:58;;;;;;;9.87;6.37;;;5.50;99.90;;;;;;4946421;28;20219;-75
2023/04/07 03:43:24;;;;;;;10.43;6.33;;;5.40;99.90;;;;;;4947036;28;20619;-76
2023/04/07 03:45:52;;;;;;;10.00;6.47;;;5.50;99.90;;;;;;4949107;28;20726;-73
2023/04/07 03:48:17;;;;;;;11.23;6.70;;;5.60;99.90;;;;;;4947327;28;20277;-74
2023/04/07 03:50:44;;;;;;;11.93;6.63;;;5.60;99.90;;;;;;4943791;28;20703;-75
2023/04/07 03:53:10;;;;;;;12.30;6.67;;;5.60;99.90;;;;;;4945675;28;20208;-75
2023/04/07 03:55:36;;;;;;;11.07;7.23;;;5.60;99.90;;;;;;4942453;28;20265;-76
2023/04/07 03:58:02;;;;;;;13.27;7.00;;;5.70;99.90;;;;;;4947207;28;20186;-75
2023/04/07 04:00:27;;;;;;;10.87;8.13;;;5.70;99.90;;;;;;4947724;28;20468;-74
2023/04/07 04:02:53;;;;;;;11.47;6.90;;;5.70;99.90;;;;;;4948935;28;20207;-75
2023/04/07 04:05:19;;;;;;;12.17;8.30;;;5.70;99.90;;;;;;4948286;28;20266;-74
2023/04/07 04:07:44;;;;;;;10.13;7.20;;;5.70;99.90;;;;;;4948184;28;20215;-74
2023/04/07 04:10:10;;;;;;;12.37;7.67;;;5.70;99.90;;;;;;4944604;28;20281;-73
2023/04/07 04:12:36;;;;;;;9.50;7.37;;;5.70;99.90;;;;;;4945663;28;20207;-75
2023/04/07 04:15:01;;;;;;;12.67;8.03;;;5.70;99.90;;;;;;4948566;28;20219;-74
2023/04/07 04:17:27;;;;;;;10.30;7.83;;;5.70;99.90;;;;;;4947848;28;20217;-74
2023/04/07 04:19:54;;;;;;;12.30;8.37;;;5.50;99.90;;;;;;4945705;28;20282;-74
2023/04/07 04:22:19;;;;;;;14.47;8.80;;;5.50;99.90;;;;;;4948169;28;20559;-74
2023/04/07 04:24:45;;;;;;;13.57;8.87;;;5.50;99.90;;;;;;4945191;28;20187;-75
2023/04/07 04:27:10;;;;;;;11.63;7.87;;;5.50;99.90;;;;;;4943483;28;20236;-75
2023/04/07 04:29:36;;;;;;;14.13;8.40;;;5.50;99.90;;;;;;4941886;28;20233;-74
2023/04/07 04:32:02;;;;;;;13.20;8.57;;;5.50;99.90;;;;;;4942173;28;20228;-72
2023/04/07 04:34:27;;;;;;;15.83;8.53;;;5.40;99.90;;;;;;4943771;28;20175;-74
2023/04/07 04:36:53;;;;;;;14.43;8.63;;;5.40;99.90;;;;;;4952452;28;20677;-73
2023/04/07 04:39:18;;;;;;;12.00;8.43;;;5.30;99.90;;;;;;4949708;28;20214;-74
2023/04/07 04:41:45;;;;;;;15.27;8.70;;;5.30;99.90;;;;;;4954711;28;20222;-73
2023/04/07 04:44:11;;;;;;;11.87;8.00;;;5.30;99.90;;;;;;4967932;28;20593;-75
2023/04/07 04:46:37;;;;;;;13.97;8.70;;;5.20;99.90;;;;;;4950280;28;20587;-75
2023/04/07 04:49:02;;;;;;;12.90;8.87;;;5.20;99.90;;;;;;4950755;28;20183;-75
2023/04/07 04:51:28;;;;;;;13.57;8.50;;;5.20;99.90;;;;;;4947754;28;20301;-76
2023/04/07 04:53:54;;;;;;;15.10;8.00;;;5.20;99.90;;;;;;4945608;28;20644;-75
2023/04/07 04:56:20;;;;;;;13.67;8.30;;;5.20;99.90;;;;;;4948661;28;20206;-75
2023/04/07 04:58:46;;;;;;;10.70;6.90;;;5.20;99.90;;;;;;4947021;28;20217;-75
2023/04/07 05:01:12;;;;;;;12.37;7.73;;;5.20;99.90;;;;;;4945130;28;20250;-75
2023/04/07 05:03:38;;;;;;;13.80;7.40;;;5.30;99.90;;;;;;4947440;28;20178;-75
2023/04/07 05:06:03;;;;;;;10.37;7.30;;;5.30;99.90;;;;;;4944596;28;20287;-74
2023/04/07 05:08:29;;;;;;;10.97;7.13;;;5.40;99.90;;;;;;4950135;28;20254;-75
2023/04/07 05:10:56;;;;;;;11.00;7.73;;;5.40;99.90;;;;;;4946931;28;20219;-74
2023/04/07 05:13:21;;;;;;;17.77;8.63;;;5.60;99.90;;;;;;4947682;28;20175;-76
2023/04/07 05:15:47;;;;;;;10.90;6.97;;;5.70;99.90;;;;;;4942869;28;20266;-75
2023/04/07 05:18:13;;;;;;;9.30;6.93;;;5.90;99.90;;;;;;4945328;28;20219;-74
2023/04/07 05:20:38;;;;;;;10.17;7.17;;;5.80;99.90;;;;;;4946320;28;20225;-75
2023/04/07 05:23:04;;;;;;;10.33;7.20;;;5.90;99.90;;;;;;4943631;28;20214;-74
2023/04/07 05:25:31;;;;;;;9.40;6.87;;;6.10;99.90;;;;;;4945706;28;20246;-75
2023/04/07 05:27:57;;;;;;;11.77;7.43;;;6.10;99.90;;;;;;4945837;28;20187;-75
2023/04/07 05:30:23;;;;;;;9.97;7.23;;;6.50;99.90;;;;;;4943542;28;20589;-76
2023/04/07 05:32:48;;;;;;;12.77;7.13;;;6.90;99.90;;;;;;4945551;28;20207;-75
2023/04/07 05:35:14;;;;;;;13.13;7.27;;;7.10;99.90;;;;;;4946115;28;20212;-74
2023/04/07 05:37:40;;;;;;;11.10;7.40;;;7.30;99.90;;;;;;4946722;28;20207;-76
2023/04/07 05:40:06;;;;;;;12.20;7.80;;;7.30;99.90;;;;;;4943747;28;20233;-75
2023/04/07 05:42:32;;;;;;;11.47;7.03;;;7.30;99.90;;;;;;4947262;28;20203;-76
2023/04/07 05:44:58;;;;;;;11.43;7.47;;;7.60;99.90;;;;;;4943353;28;20778;-73
2023/04/07 05:47:23;;;;;;;11.07;7.40;;;7.60;99.90;;;;;;4951660;28;20214;-75
2023/04/07 05:49:49;;;;;;;11.10;7.70;;;7.70;99.90;;;;;;4944137;28;20215;-75
2023/04/07 05:52:15;;;;;;;11.33;7.50;;;7.70;99.90;;;;;;4945881;28;20175;-75
2023/04/07 05:54:40;;;;;;;11.53;7.20;;;7.90;99.90;;;;;;4943682;28;20180;-75
2023/04/07 05:57:07;;;;;;;10.67;7.33;;;8.20;99.90;;;;;;4950486;28;20274;-76
2023/04/07 05:59:33;;;;;;;8.87;7.10;;;8.50;99.90;;;;;;4944698;28;20214;-74
2023/04/07 06:01:59;;;;;;;10.47;7.37;;;8.50;99.90;;;;;;4943827;28;20267;-75
2023/04/07 06:04:25;;;;;;;10.90;7.30;;;8.20;99.90;;;;;;4948071;28;20203;-76
2023/04/07 06:06:54;;;;;;;11.47;7.27;;;7.90;99.90;;;;;;4947679;28;20548;-75
2023/04/07 06:09:20;;;;;;;12.67;7.50;;;7.90;99.90;;;;;;4941684;28;20219;-75
2023/04/07 06:11:46;;;;;;;15.03;7.57;;;7.70;99.90;;;;;;4945375;28;20257;-75
2023/04/07 06:14:12;;;;;;;12.40;7.57;;;7.70;99.90;;;;;;4945651;28;20314;-75
2023/04/07 06:16:38;;;;;;;10.50;7.33;;;7.40;99.90;;;;;;4943848;28;20219;-75
2023/04/07 06:19:06;;;;;;;12.00;7.17;;;7.80;99.90;;;;;;4944445;28;20346;-74
2023/04/07 06:21:32;;;;;;;14.17;7.90;;;8.00;99.90;;;;;;4945630;28;20214;-75
2023/04/07 06:23:58;;;;;;;10.87;7.20;;;8.40;99.90;;;;;;4943054;28;20234;-73
2023/04/07 06:26:24;;;;;;;10.50;7.27;;;8.80;99.90;;;;;;4944292;28;20690;-76
2023/04/07 06:28:50;;;;;;;12.50;7.80;;;8.80;99.90;;;;;;4942529;28;20718;-74
2023/04/07 06:31:17;;;;;;;12.77;7.27;;;8.70;99.90;;;;;;4973482;23;20325;-77
2023/04/07 06:33:43;;;;;;;14.30;8.20;;;8.40;99.90;;;;;;4974174;28;20186;-78
2023/04/07 06:36:09;;;;;;;11.27;7.37;;;7.90;99.90;;;;;;4971291;28;20224;-78
2023/04/07 06:38:35;;;;;;;11.43;7.70;;;8.10;99.90;;;;;;4978200;28;20214;-78
2023/04/07 06:41:00;;;;;;;12.97;8.00;;;8.50;99.90;;;;;;4977617;28;20612;-76
2023/04/07 06:43:26;;;;;;;10.07;7.40;;;8.60;99.90;;;;;;4978754;28;20681;-78
2023/04/07 06:45:52;;;;;;;10.63;8.10;;;8.40;99.90;;;;;;4985053;28;20563;-78
2023/04/07 06:48:17;;;;;;;16.30;9.03;;;8.50;99.90;;;;;;4981351;28;20214;-80
2023/04/07 06:50:48;;;;;;;13.77;8.17;;;8.60;99.90;;;;;;4979040;28;20261;-77
2023/04/07 06:53:14;;;;;;;13.10;8.43;;;8.80;99.90;;;;;;4979388;28;20317;-79
2023/04/07 06:55:40;;;;;;;11.80;7.80;;;8.70;99.90;;;;;;4982895;28;20241;-79
2023/04/07 06:58:06;;;;;;;11.97;8.27;;;8.90;99.90;;;;;;4980730;28;20274;-76
2023/04/07 07:00:31;;;;;;;12.83;8.57;;;9.00;99.90;;;;;;4992261;28;20313;-77
2023/04/07 07:02:57;;;;;;;12.57;8.70;;;9.40;99.90;;;;;;4978510;28;20238;-78
2023/04/07 07:05:23;;;;;;;13.97;7.83;;;9.30;99.90;;;;;;4982455;28;20235;-77
2023/04/07 07:07:49;;;;;;;12.70;8.50;;;9.10;99.90;;;;;;4985555;28;20289;-78
2023/04/07 07:10:15;;;;;;;11.13;8.20;;;9.10;99.90;;;;;;4984398;28;20236;-76
2023/04/07 07:12:41;;;;;;;12.43;8.70;;;8.70;99.90;;;;;;4979203;28;20285;-77
2023/04/07 07:15:07;;;;;;;10.40;7.67;;;8.70;99.90;;;;;;4978305;28;20260;-77
2023/04/07 07:17:33;;;;;;;14.90;8.17;;;8.70;99.90;;;;;;4995747;28;20705;-77
2023/04/07 07:19:59;;;;;;;14.50;8.63;;;8.10;99.90;;;;;;4986028;28;20225;-76
2023/04/07 07:22:24;;;;;;;15.73;9.20;;;8.50;99.90;;;;;;4982035;28;20202;-76
2023/04/07 07:24:50;;;;;;;13.13;8.30;;;8.70;99.90;;;;;;4978920;28;20185;-77
2023/04/07 07:27:16;;;;;;;12.60;8.57;;;9.30;99.90;;;;;;4979823;28;20297;-77
2023/04/07 07:29:42;;;;;;;13.13;8.40;;;9.50;99.90;;;;;;4982376;28;20216;-77
2023/04/07 07:32:07;;;;;;;15.37;8.20;;;9.40;99.90;;;;;;4979978;28;20326;-77
2023/04/07 07:34:33;;;;;;;12.77;7.67;;;9.80;99.90;;;;;;4985821;28;20214;-77
2023/04/07 07:36:58;;;;;;;13.07;7.73;;;9.50;99.90;;;;;;4981486;28;20606;-78
2023/04/07 07:39:25;;;;;;;14.70;8.43;;;9.20;99.90;;;;;;4984464;28;20219;-77
2023/04/07 07:41:51;;;;;;;10.53;7.50;;;9.10;99.90;;;;;;4980547;28;20294;-77
2023/04/07 07:44:19;;;;;;;14.73;8.60;;;9.40;99.90;;;;;;4981089;28;20246;-78
2023/04/07 07:46:44;;;;;;;12.57;7.00;;;9.30;99.90;;;;;;4979081;28;20289;-75
2023/04/07 07:49:10;;;;;;;12.10;7.40;;;9.30;99.90;;;;;;4981443;28;20266;-76
2023/04/07 07:51:36;;;;;;;10.67;6.90;;;9.40;99.90;;;;;;4974656;28;20238;-77
2023/04/07 07:54:02;;;;;;;8.77;6.50;;;9.30;99.90;;;;;;4979383;28;20217;-77
2023/04/07 07:56:27;;;;;;;49.70;27.80;;;9.30;99.90;;;;;;4976322;28;20708;-77
2023/04/07 07:58:53;;;;;;;10.90;6.80;;;9.10;99.90;;;;;;4977814;28;20749;-77
2023/04/07 08:01:19;;;;;;;11.30;6.63;;;8.70;99.90;;;;;;4980581;28;20217;-77
2023/04/07 08:03:45;;;;;;;9.67;5.70;;;8.70;99.90;;;;;;4983667;28;20537;-77
2023/04/07 08:06:11;;;;;;;9.13;5.20;;;8.60;99.90;;;;;;4964618;28;20210;-77
2023/04/07 08:08:37;;;;;;;9.97;5.63;;;8.40;99.90;;;;;;4982207;28;20706;-77
2023/04/07 08:11:03;;;;;;;8.60;5.00;;;8.40;99.90;;;;;;4978738;28;20379;-74
2023/04/07 08:13:28;;;;;;;8.27;4.73;;;8.60;99.90;;;;;;4984214;28;20182;-77
2023/04/07 08:15:54;;;;;;;6.63;5.00;;;8.10;99.90;;;;;;4985739;28;20581;-77
2023/04/07 08:18:20;;;;;;;12.17;5.70;;;7.90;99.90;;;;;;4978118;28;20702;-77
2023/04/07 08:20:46;;;;;;;8.43;5.43;;;7.90;99.90;;;;;;4981571;28;20220;-75
2023/04/07 08:23:11;;;;;;;9.77;5.60;;;8.00;99.90;;;;;;4978047;28;20312;-77
2023/04/07 08:25:38;;;;;;;10.83;5.63;;;8.30;99.90;;;;;;4982491;28;20224;-78
2023/04/07 08:28:05;;;;;;;10.20;5.33;;;8.50;99.90;;;;;;4980331;28;20240;-76
2023/04/07 08:30:31;;;;;;;9.27;5.47;;;8.80;99.90;;;;;;4971310;28;20207;-78
2023/04/07 08:32:56;;;;;;;7.60;5.00;;;9.20;99.90;;;;;;4975142;28;20228;-78
2023/04/07 08:35:22;;;;;;;8.93;4.33;;;9.30;99.90;;;;;;4970680;28;20312;-78
2023/04/07 08:37:48;;;;;;;7.70;4.90;;;9.10;99.90;;;;;;4977875;28;20264;-78
2023/04/07 08:40:14;;;;;;;8.10;4.47;;;9.30;99.90;;;;;;4972096;28;20208;-78
2023/04/07 08:42:43;;;;;;;5.77;3.50;;;9.50;99.90;;;;;;4971237;28;20195;-78
2023/04/07 08:45:09;;;;;;;6.00;3.90;;;9.80;99.90;;;;;;4980668;28;20574;-78
2023/04/07 08:47:36;;;;;;;8.20;4.10;;;9.70;99.90;;;;;;4974956;28;20289;-77
2023/04/07 08:50:10;;;;;;;7.00;3.90;;;9.70;99.90;;;;;;4983755;28;20755;-77
2023/04/07 08:52:55;;;;;;;8.07;4.90;;;9.70;99.90;;;;;;4978742;28;20602;-78
2023/04/07 08:55:21;;;;;;;10.40;6.17;;;9.50;99.90;;;;;;4981296;28;20190;-76
2023/04/07 08:57:47;;;;;;;6.43;4.47;;;9.50;99.90;;;;;;4987287;28;20186;-78
2023/04/07 09:00:13;;;;;;;5.00;4.07;;;9.40;99.90;;;;;;4975199;28;20246;-78
2023/04/07 09:02:42;;;;;;;6.60;4.70;;;9.40;99.90;;;;;;4982746;28;20238;-78
2023/04/07 09:05:08;;;;;;;6.93;4.17;;;9.10;99.90;;;;;;4975282;28;20238;-77
2023/04/07 09:07:35;;;;;;;12.47;4.67;;;9.00;99.90;;;;;;4979742;28;20211;-79
2023/04/07 09:10:01;;;;;;;7.37;4.47;;;8.80;99.90;;;;;;4991147;28;20311;-81
2023/04/07 09:12:28;;;;;;;7.83;4.30;;;8.90;99.90;;;;;;4972189;28;20629;-79
2023/04/07 09:14:54;;;;;;;6.97;4.07;;;8.80;99.90;;;;;;4971582;28;20241;-79
2023/04/07 09:17:20;;;;;;;5.97;3.07;;;9.00;99.90;;;;;;4976206;28;20256;-78
2023/04/07 09:19:46;;;;;;;5.97;2.83;;;8.40;99.90;;;;;;4983621;28;20232;-76
2023/04/07 09:22:13;;;;;;;6.43;3.33;;;7.80;99.90;;;;;;4978062;28;20664;-76
2023/04/07 09:24:40;;;;;;;6.13;3.27;;;7.60;99.90;;;;;;4982868;28;20183;-79
2023/04/07 09:27:10;;;;;;;5.23;2.90;;;7.60;99.90;;;;;;4984595;28;20224;-79
2023/04/07 09:29:36;;;;;;;5.03;3.13;;;7.50;99.90;;;;;;4980079;28;20214;-79
2023/04/07 09:32:02;;;;;;;6.70;3.27;;;7.60;99.90;;;;;;4980307;28;20233;-79
2023/04/07 09:34:35;;;;;;;7.10;3.77;;;7.50;99.90;;;;;;4983585;28;20465;-76
2023/04/07 09:37:03;;;;;;;6.37;3.50;;;7.50;99.90;;;;;;4977371;28;20198;-77
2023/04/07 09:39:29;;;;;;;6.47;4.03;;;7.80;99.90;;;;;;4978970;28;20223;-79
2023/04/07 09:41:56;;;;;;;7.30;3.73;;;8.00;99.90;;;;;;4985069;28;20280;-79
2023/04/07 09:44:23;;;;;;;7.00;3.70;;;8.20;99.90;;;;;;4982575;28;20739;-78
2023/04/07 09:46:48;;;;;;;5.00;3.30;;;8.00;99.90;;;;;;4983822;28;20218;-78
2023/04/07 09:49:15;;;;;;;6.37;3.23;;;8.20;99.90;;;;;;4985125;28;20181;-79
2023/04/07 09:51:52;;;;;;;4.77;3.43;;;8.10;99.90;;;;;;4979364;28;20290;-79
2023/04/07 09:54:31;;;;;;;5.17;3.33;;;8.40;99.90;;;;;;4981488;28;20295;-79
2023/04/07 09:57:00;;;;;;;5.53;3.70;;;8.30;99.90;;;;;;4997899;28;20217;-77
2023/04/07 09:59:27;;;;;;;7.50;3.67;;;8.40;99.90;;;;;;4978211;28;20245;-81
2023/04/07 10:01:54;;;;;;;6.33;3.57;;;8.50;99.90;;;;;;4979977;28;20221;-78
2023/04/07 10:04:19;;;;;;;6.87;3.63;;;8.50;99.90;;;;;;4981949;28;20182;-78
2023/04/07 10:06:46;;;;;;;5.53;3.53;;;8.50;99.90;;;;;;4980651;28;20708;-79
2023/04/07 10:09:13;;;;;;;6.53;3.87;;;8.20;99.90;;;;;;4982950;28;20298;-80
2023/04/07 10:11:41;;;;;;;4.30;3.00;;;8.30;99.90;;;;;;4983112;28;20243;-78
2023/04/07 10:14:08;;;;;;;6.47;3.60;;;8.20;99.90;;;;;;4980467;28;20218;-79
2023/04/07 10:16:36;;;;;;;4.63;3.27;;;8.10;99.90;;;;;;4983082;28;20214;-79
2023/04/07 10:19:02;;;;;;;5.57;3.57;;;8.40;99.90;;;;;;4985413;28;20194;-78
2023/04/07 10:21:30;;;;;;;5.97;3.20;;;8.40;99.90;;;;;;4984725;28;20360;-79
2023/04/07 10:24:08;;;;;;;4.37;2.47;;;8.40;99.90;;;;;;4977731;28;20261;-79
2023/04/07 10:26:35;;;;;;;4.97;2.90;;;8.40;99.90;;;;;;4977258;28;20203;-79
2023/04/07 10:29:09;;;;;;;5.77;2.63;;;8.50;99.90;;;;;;4984197;28;20221;-79
2023/04/07 10:31:36;;;;;;;7.27;2.90;;;8.20;99.90;;;;;;4975737;28;20227;-76
2023/04/07 10:34:02;;;;;;;3.77;2.53;;;8.20;99.90;;;;;;4993590;28;20273;-77
2023/04/07 10:36:28;;;;;;;5.30;2.67;;;8.10;99.90;;;;;;4966276;28;20290;-79
2023/04/07 10:39:08;;;;;;;5.67;2.67;;;8.00;99.90;;;;;;4984861;28;20214;-80
2023/04/07 10:41:40;;;;;;;6.33;2.63;;;7.90;99.90;;;;;;4978425;28;20210;-79
2023/04/07 10:44:27;;;;;;;4.40;2.70;;;7.90;99.90;;;;;;4980048;28;20268;-79
2023/04/07 10:47:03;;;;;;;3.70;2.30;;;8.00;99.90;;;;;;4979342;28;20734;-78
2023/04/07 10:49:29;;;;;;;2.93;2.20;;;8.10;99.90;;;;;;4983189;28;20217;-78
2023/04/07 10:52:13;;;;;;;4.33;2.30;;;8.20;99.90;;;;;;4984270;28;20233;-78
2023/04/07 10:54:40;;;;;;;4.40;3.03;;;8.50;99.90;;;;;;4998607;28;20209;-79
2023/04/07 10:57:10;;;;;;;3.63;2.80;;;8.40;99.90;;;;;;4979628;28;20317;-78
2023/04/07 10:59:38;;;;;;;3.63;2.83;;;8.50;99.90;;;;;;4980626;28;20222;-78
2023/04/07 11:02:13;;;;;;;4.07;2.80;;;8.40;99.90;;;;;;4980985;28;20615;-76
2023/04/07 11:04:40;;;;;;;4.90;2.90;;;8.60;99.90;;;;;;4987635;28;20360;-79
2023/04/07 11:07:06;;;;;;;3.30;2.20;;;8.50;99.90;;;;;;4981884;28;20236;-79
2023/04/07 11:09:31;;;;;;;3.90;2.83;;;8.50;99.90;;;;;;4973811;28;20685;-77
2023/04/07 11:11:57;;;;;;;6.93;3.77;;;8.40;99.90;;;;;;4992036;28;20237;-80
2023/04/07 11:14:26;;;;;;;7.23;3.70;;;8.20;99.90;;;;;;4979023;28;20233;-78
2023/04/07 11:16:52;;;;;;;5.87;3.17;;;8.30;99.90;;;;;;4981523;28;20217;-79
2023/04/07 11:19:18;;;;;;;6.07;3.47;;;8.30;99.90;;;;;;4973563;28;20207;-79
2023/04/07 11:21:43;;;;;;;4.93;3.10;;;8.10;99.90;;;;;;4973803;28;20198;-78
2023/04/07 11:24:09;;;;;;;4.73;3.50;;;8.30;99.90;;;;;;4982294;28;20213;-78
2023/04/07 11:26:40;;;;;;;4.30;3.27;;;8.30;99.90;;;;;;4980869;28;20215;-77
2023/04/07 11:29:06;;;;;;;7.13;3.43;;;8.30;99.90;;;;;;4982097;28;20688;-78
2023/04/07 11:31:32;;;;;;;5.97;3.43;;;8.60;99.90;;;;;;4980669;28;20226;-79
2023/04/07 11:34:01;;;;;;;7.77;3.63;;;8.50;99.90;;;;;;4980522;28;20178;-79
2023/04/07 11:36:46;;;;;;;5.90;3.80;;;8.40;99.90;;;;;;4981318;28;20664;-78
2023/04/07 11:39:20;;;;;;;8.67;4.60;;;8.70;99.90;;;;;;4976729;28;20242;-77
2023/04/07 11:41:47;;;;;;;5.47;4.03;;;8.70;99.90;;;;;;4977539;28;20612;-77
2023/04/07 11:44:13;;;;;;;9.73;4.73;;;8.50;99.90;;;;;;4983636;28;20214;-78
2023/04/07 11:46:56;;;;;;;6.63;4.30;;;8.50;99.90;;;;;;4978544;28;20213;-77
2023/04/07 11:49:22;;;;;;;7.63;5.07;;;8.30;99.90;;;;;;4980766;28;20715;-78
2023/04/07 11:51:56;;;;;;;8.90;5.43;;;8.40;99.90;;;;;;4980841;28;20202;-78
2023/04/07 11:54:21;;;;;;;8.53;5.03;;;8.60;99.90;;;;;;4970957;28;20599;-77
2023/04/07 11:56:47;;;;;;;6.43;4.80;;;8.50;99.90;;;;;;4980619;28;20229;-78
2023/04/07 11:59:21;;;;;;;5.80;4.07;;;8.50;99.90;;;;;;4981831;28;20224;-78
2023/04/07 12:01:49;;;;;;;4.73;4.10;;;8.10;99.90;;;;;;4979977;28;20312;-75
2023/04/07 12:04:15;;;;;;;4.87;3.90;;;7.90;99.90;;;;;;4984685;28;20184;-77
2023/04/07 12:06:42;;;;;;;8.33;4.70;;;7.60;99.90;;;;;;4982522;28;20186;-78
2023/04/07 12:09:24;;;;;;;7.03;4.40;;;7.60;99.90;;;;;;4985548;28;20631;-78
2023/04/07 12:11:50;;;;;;;7.53;4.47;;;7.80;99.90;;;;;;4977844;28;20628;-78
2023/04/07 12:14:15;;;;;;;7.37;5.10;;;7.60;99.90;;;;;;4978655;28;20213;-78
2023/04/07 12:16:41;;;;;;;6.80;4.20;;;7.60;99.90;;;;;;4982499;28;20214;-77
2023/04/07 12:19:07;;;;;;;6.60;4.70;;;7.70;99.90;;;;;;4978593;28;20190;-78
2023/04/07 12:21:32;;;;;;;9.70;5.43;;;7.80;99.90;;;;;;4975914;28;20219;-78
2023/04/07 12:23:58;;;;;;;7.57;5.80;;;7.90;99.90;;;;;;4982124;28;20206;-78
2023/04/07 12:26:24;;;;;;;6.70;4.63;;;8.00;99.90;;;;;;4969595;28;20297;-78
2023/04/07 12:28:50;;;;;;;6.40;3.87;;;7.80;99.90;;;;;;4995875;28;20682;-77
2023/04/07 12:31:16;;;;;;;7.27;4.63;;;7.90;99.90;;;;;;4977981;28;20221;-77
2023/04/07 12:33:42;;;;;;;4.97;3.97;;;8.00;99.90;;;;;;4999677;23;20219;-75
2023/04/07 12:36:07;;;;;;;8.33;4.40;;;7.80;99.90;;;;;;4964523;28;20211;-75
2023/04/07 12:38:33;;;;;;;6.77;4.23;;;7.80;99.90;;;;;;4963120;28;20211;-75
2023/04/07 12:41:02;;;;;;;7.53;4.83;;;7.70;99.90;;;;;;4964916;28;20731;-74
2023/04/07 12:43:29;;;;;;;5.73;4.17;;;7.80;99.90;;;;;;4959684;28;20199;-75
2023/04/07 12:45:54;;;;;;;6.80;4.50;;;7.90;99.90;;;;;;4961963;28;20186;-75
2023/04/07 12:48:21;;;;;;;6.90;4.40;;;7.80;99.90;;;;;;4962218;28;20215;-73
2023/04/07 12:50:46;;;;;;;5.13;3.33;;;7.80;99.90;;;;;;4962832;28;20218;-75
2023/04/07 12:53:12;;;;;;;5.37;3.77;;;7.70;99.90;;;;;;4960365;28;20219;-74